sensor_id;sensor_type;location;lat;lon;timestamp;temperature;humidity
60495;DHT22;46342;49.046;11.920;2022-07-06T00:02:31;19.50;39.80
60495;DHT22;46342;49.046;11.920;2022-07-06T00:04:57;19.50;40.60
60495;DHT22;46342;49.046;11.920;2022-07-06T00:07:39;19.40;39.90
60495;DHT22;46342;49.046;11.920;2022-07-06T00:10:08;19.30;40.70
60495;DHT22;46342;49.046;11.920;2022-07-06T00:12:45;19.30;40.10
60495;DHT22;46342;49.046;11.920;2022-07-06T00:15:19;19.30;41.00
60495;DHT22;46342;49.046;11.920;2022-07-06T00:17:55;19.20;40.50
60495;DHT22;46342;49.046;11.920;2022-07-06T00:20:21;19.10;40.30
60495;DHT22;46342;49.046;11.920;2022-07-06T00:22:53;19.10;40.50
60495;DHT22;46342;49.046;11.920;2022-07-06T00:25:20;19.10;40.60
60495;DHT22;46342;49.046;11.920;2022-07-06T00:27:48;19.00;40.70
60495;DHT22;46342;49.046;11.920;2022-07-06T00:30:20;19.00;41.00
60495;DHT22;46342;49.046;11.920;2022-07-06T00:32:51;18.90;40.70
60495;DHT22;46342;49.046;11.920;2022-07-06T00:35:18;18.90;40.80
60495;DHT22;46342;49.046;11.920;2022-07-06T00:37:50;18.90;40.80
60495;DHT22;46342;49.046;11.920;2022-07-06T00:40:17;18.90;41.50
60495;DHT22;46342;49.046;11.920;2022-07-06T00:42:49;18.80;40.90
60495;DHT22;46342;49.046;11.920;2022-07-06T00:45:22;18.80;41.10
60495;DHT22;46342;49.046;11.920;2022-07-06T01:59:40;17.70;42.40
60495;DHT22;46342;49.046;11.920;2022-07-06T02:02:09;17.60;42.10
60495;DHT22;46342;49.046;11.920;2022-07-06T02:05:36;17.60;42.50
60495;DHT22;46342;49.046;11.920;2022-07-06T02:12:05;17.60;43.50
60495;DHT22;46342;49.046;11.920;2022-07-06T02:14:36;17.50;42.80
60495;DHT22;46342;49.046;11.920;2022-07-06T02:17:07;17.40;42.50
60495;DHT22;46342;49.046;11.920;2022-07-06T02:19:55;17.40;43.00
60495;DHT22;46342;49.046;11.920;2022-07-06T02:29:25;17.40;43.90
60495;DHT22;46342;49.046;11.920;2022-07-06T02:31:57;17.30;44.50
60495;DHT22;46342;49.046;11.920;2022-07-06T02:37:55;17.20;43.30
60495;DHT22;46342;49.046;11.920;2022-07-06T02:43:23;17.20;43.70
60495;DHT22;46342;49.046;11.920;2022-07-06T02:46:03;17.20;43.50
60495;DHT22;46342;49.046;11.920;2022-07-06T02:48:32;17.10;43.50
60495;DHT22;46342;49.046;11.920;2022-07-06T02:51:32;17.10;43.70
60495;DHT22;46342;49.046;11.920;2022-07-06T04:25:58;16.60;46.40
60495;DHT22;46342;49.046;11.920;2022-07-06T04:28:24;16.70;45.10
60495;DHT22;46342;49.046;11.920;2022-07-06T04:30:49;16.70;45.30
60495;DHT22;46342;49.046;11.920;2022-07-06T04:33:15;16.70;45.40
60495;DHT22;46342;49.046;11.920;2022-07-06T05:29:59;17.80;47.90
60495;DHT22;46342;49.046;11.920;2022-07-06T05:32:25;17.80;46.60
60495;DHT22;46342;49.046;11.920;2022-07-06T05:41:24;18.10;48.20
60495;DHT22;46342;49.046;11.920;2022-07-06T05:43:49;18.10;47.20
60495;DHT22;46342;49.046;11.920;2022-07-06T05:46:15;18.20;47.10
60495;DHT22;46342;49.046;11.920;2022-07-06T05:52:37;18.40;48.30
60495;DHT22;46342;49.046;11.920;2022-07-06T06:02:53;18.60;48.60
60495;DHT22;46342;49.046;11.920;2022-07-06T06:05:28;18.70;48.20
60495;DHT22;46342;49.046;11.920;2022-07-06T06:08:04;18.70;47.10
60495;DHT22;46342;49.046;11.920;2022-07-06T06:11:02;18.70;47.60
60495;DHT22;46342;49.046;11.920;2022-07-06T09:57:55;25.80;39.90
60495;DHT22;46342;49.046;11.920;2022-07-06T10:00:21;25.80;40.40
60495;DHT22;46342;49.046;11.920;2022-07-06T10:02:47;25.90;40.10
60495;DHT22;46342;49.046;11.920;2022-07-06T10:05:16;25.90;40.00
60495;DHT22;46342;49.046;11.920;2022-07-06T10:07:45;25.90;39.50
60495;DHT22;46342;49.046;11.920;2022-07-06T10:10:11;26.00;39.50
60495;DHT22;46342;49.046;11.920;2022-07-06T10:12:37;26.10;39.60
60495;DHT22;46342;49.046;11.920;2022-07-06T10:15:06;26.10;39.30
60495;DHT22;46342;49.046;11.920;2022-07-06T10:17:32;26.20;39.10
60495;DHT22;46342;49.046;11.920;2022-07-06T10:19:58;26.30;38.90
60495;DHT22;46342;49.046;11.920;2022-07-06T10:22:24;26.30;38.80
60495;DHT22;46342;49.046;11.920;2022-07-06T10:24:50;26.40;38.80
60495;DHT22;46342;49.046;11.920;2022-07-06T10:27:16;26.40;38.60
60495;DHT22;46342;49.046;11.920;2022-07-06T10:29:42;26.50;38.40
60495;DHT22;46342;49.046;11.920;2022-07-06T10:32:08;26.60;38.20
60495;DHT22;46342;49.046;11.920;2022-07-06T10:34:35;26.60;38.10
60495;DHT22;46342;49.046;11.920;2022-07-06T10:37:02;26.60;38.10
60495;DHT22;46342;49.046;11.920;2022-07-06T10:39:38;26.70;38.00
60495;DHT22;46342;49.046;11.920;2022-07-06T10:42:45;26.80;37.90
60495;DHT22;46342;49.046;11.920;2022-07-06T10:45:13;26.90;37.10
60495;DHT22;46342;49.046;11.920;2022-07-06T10:47:42;26.90;37.60
60495;DHT22;46342;49.046;11.920;2022-07-06T10:50:08;27.00;37.00
60495;DHT22;46342;49.046;11.920;2022-07-06T10:52:50;27.00;37.30
60495;DHT22;46342;49.046;11.920;2022-07-06T10:55:34;27.10;36.40
60495;DHT22;46342;49.046;11.920;2022-07-06T10:58:00;27.20;36.40
60495;DHT22;46342;49.046;11.920;2022-07-06T11:00:26;27.20;37.40
60495;DHT22;46342;49.046;11.920;2022-07-06T11:06:18;27.40;35.60
60495;DHT22;46342;49.046;11.920;2022-07-06T11:11:17;27.60;36.50
60495;DHT22;46342;49.046;11.920;2022-07-06T11:13:48;27.60;35.90
60495;DHT22;46342;49.046;11.920;2022-07-06T11:16:16;27.60;35.50
60495;DHT22;46342;49.046;11.920;2022-07-06T11:18:47;27.60;35.70
60495;DHT22;46342;49.046;11.920;2022-07-06T11:21:27;27.60;35.30
60495;DHT22;46342;49.046;11.920;2022-07-06T11:23:57;27.70;34.90
60495;DHT22;46342;49.046;11.920;2022-07-06T11:26:23;27.70;35.50
60495;DHT22;46342;49.046;11.920;2022-07-06T11:28:51;27.70;35.10
60495;DHT22;46342;49.046;11.920;2022-07-06T11:31:17;27.80;34.80
60495;DHT22;46342;49.046;11.920;2022-07-06T11:33:45;27.80;35.00
60495;DHT22;46342;49.046;11.920;2022-07-06T11:36:19;27.90;34.60
60495;DHT22;46342;49.046;11.920;2022-07-06T11:38:47;27.90;34.50
60495;DHT22;46342;49.046;11.920;2022-07-06T11:41:14;28.00;35.10
60495;DHT22;46342;49.046;11.920;2022-07-06T11:43:44;28.00;35.20
60495;DHT22;46342;49.046;11.920;2022-07-06T11:46:30;28.10;35.10
60495;DHT22;46342;49.046;11.920;2022-07-06T11:49:09;28.20;34.10
60495;DHT22;46342;49.046;11.920;2022-07-06T11:51:39;28.30;33.90
60495;DHT22;46342;49.046;11.920;2022-07-06T11:56:36;28.30;33.90
60495;DHT22;46342;49.046;11.920;2022-07-06T11:59:02;28.30;34.20
60495;DHT22;46342;49.046;11.920;2022-07-06T12:01:29;28.40;33.90
60495;DHT22;46342;49.046;11.920;2022-07-06T12:04:01;28.40;33.90
60495;DHT22;46342;49.046;11.920;2022-07-06T12:06:29;28.40;33.90
60495;DHT22;46342;49.046;11.920;2022-07-06T12:08:58;28.40;33.80
60495;DHT22;46342;49.046;11.920;2022-07-06T12:11:33;28.50;33.40
60495;DHT22;46342;49.046;11.920;2022-07-06T12:37:38;28.50;32.40
60495;DHT22;46342;49.046;11.920;2022-07-06T12:40:13;28.40;33.30
60495;DHT22;46342;49.046;11.920;2022-07-06T12:42:47;28.40;32.70
60495;DHT22;46342;49.046;11.920;2022-07-06T12:45:13;28.50;33.00
60495;DHT22;46342;49.046;11.920;2022-07-06T12:47:38;28.40;33.30
60495;DHT22;46342;49.046;11.920;2022-07-06T12:50:09;28.50;33.30
60495;DHT22;46342;49.046;11.920;2022-07-06T12:52:35;28.50;33.40
60495;DHT22;46342;49.046;11.920;2022-07-06T12:55:03;28.50;33.40
60495;DHT22;46342;49.046;11.920;2022-07-06T12:57:41;28.60;33.30
60495;DHT22;46342;49.046;11.920;2022-07-06T13:00:07;28.80;33.20
60495;DHT22;46342;49.046;11.920;2022-07-06T13:02:34;28.80;33.50
60495;DHT22;46342;49.046;11.920;2022-07-06T13:05:09;28.90;33.40
60495;DHT22;46342;49.046;11.920;2022-07-06T13:07:37;29.00;33.30
60495;DHT22;46342;49.046;11.920;2022-07-06T13:10:04;29.10;33.30
60495;DHT22;46342;49.046;11.920;2022-07-06T13:12:30;29.30;32.80
60495;DHT22;46342;49.046;11.920;2022-07-06T13:14:56;29.40;32.80
60495;DHT22;46342;49.046;11.920;2022-07-06T13:17:22;29.30;32.80
60495;DHT22;46342;49.046;11.920;2022-07-06T13:20:00;29.30;32.40
60495;DHT22;46342;49.046;11.920;2022-07-06T13:22:46;29.20;32.20
60495;DHT22;46342;49.046;11.920;2022-07-06T13:25:11;29.20;32.30
60495;DHT22;46342;49.046;11.920;2022-07-06T13:27:44;29.10;32.10
60495;DHT22;46342;49.046;11.920;2022-07-06T13:30:26;29.10;31.40
60495;DHT22;46342;49.046;11.920;2022-07-06T13:32:52;29.10;31.40
60495;DHT22;46342;49.046;11.920;2022-07-06T13:35:17;28.90;31.80
60495;DHT22;46342;49.046;11.920;2022-07-06T13:37:43;28.90;31.70
60495;DHT22;46342;49.046;11.920;2022-07-06T13:40:12;28.80;31.70
60495;DHT22;46342;49.046;11.920;2022-07-06T13:42:38;28.70;31.60
60495;DHT22;46342;49.046;11.920;2022-07-06T13:45:04;28.70;31.70
60495;DHT22;46342;49.046;11.920;2022-07-06T13:47:30;28.60;31.60
60495;DHT22;46342;49.046;11.920;2022-07-06T13:49:56;28.60;31.70
60495;DHT22;46342;49.046;11.920;2022-07-06T13:52:23;28.50;31.70
60495;DHT22;46342;49.046;11.920;2022-07-06T13:55:08;28.50;31.50
60495;DHT22;46342;49.046;11.920;2022-07-06T13:58:23;28.50;30.90
60495;DHT22;46342;49.046;11.920;2022-07-06T14:08:14;28.60;30.90
60495;DHT22;46342;49.046;11.920;2022-07-06T16:45:32;30.40;29.70
60495;DHT22;46342;49.046;11.920;2022-07-06T16:47:58;30.30;29.90
60495;DHT22;46342;49.046;11.920;2022-07-06T16:50:31;30.30;29.70
60495;DHT22;46342;49.046;11.920;2022-07-06T16:52:57;30.40;29.40
60495;DHT22;46342;49.046;11.920;2022-07-06T16:55:24;30.30;29.40
60495;DHT22;46342;49.046;11.920;2022-07-06T16:57:50;30.30;29.30
60495;DHT22;46342;49.046;11.920;2022-07-06T17:00:16;30.20;29.20
60495;DHT22;46342;49.046;11.920;2022-07-06T17:02:41;30.10;29.20
60495;DHT22;46342;49.046;11.920;2022-07-06T17:05:10;30.00;29.20
60495;DHT22;46342;49.046;11.920;2022-07-06T17:07:39;30.00;29.10
60495;DHT22;46342;49.046;11.920;2022-07-06T17:10:06;30.00;29.30
60495;DHT22;46342;49.046;11.920;2022-07-06T17:12:33;29.90;29.30
60495;DHT22;46342;49.046;11.920;2022-07-06T18:03:55;27.90;29.70
60495;DHT22;46342;49.046;11.920;2022-07-06T18:07:23;27.70;29.70
60495;DHT22;46342;49.046;11.920;2022-07-06T18:10:32;27.70;29.70
60495;DHT22;46342;49.046;11.920;2022-07-06T18:13:27;27.60;29.80
60495;DHT22;46342;49.046;11.920;2022-07-06T18:32:44;26.80;30.40
60495;DHT22;46342;49.046;11.920;2022-07-06T18:35:10;26.70;30.50
60495;DHT22;46342;49.046;11.920;2022-07-06T18:37:36;26.60;30.60
60495;DHT22;46342;49.046;11.920;2022-07-06T18:40:02;26.50;30.70
60495;DHT22;46342;49.046;11.920;2022-07-06T18:42:27;26.50;31.00
60495;DHT22;46342;49.046;11.920;2022-07-06T18:44:53;26.40;31.10
60495;DHT22;46342;49.046;11.920;2022-07-06T18:47:19;26.30;31.30
60495;DHT22;46342;49.046;11.920;2022-07-06T18:49:47;26.20;31.20
60495;DHT22;46342;49.046;11.920;2022-07-06T18:52:13;26.10;31.40
60495;DHT22;46342;49.046;11.920;2022-07-06T18:54:38;26.10;31.50
60495;DHT22;46342;49.046;11.920;2022-07-06T18:57:04;26.00;31.60
60495;DHT22;46342;49.046;11.920;2022-07-06T18:59:29;25.90;31.70
60495;DHT22;46342;49.046;11.920;2022-07-06T19:01:55;25.80;31.80
60495;DHT22;46342;49.046;11.920;2022-07-06T19:04:21;25.70;32.00
60495;DHT22;46342;49.046;11.920;2022-07-06T19:06:46;25.60;32.00
60495;DHT22;46342;49.046;11.920;2022-07-06T19:09:12;25.50;32.20
60495;DHT22;46342;49.046;11.920;2022-07-06T19:11:37;25.50;32.30
60495;DHT22;46342;49.046;11.920;2022-07-06T19:14:04;25.30;32.30
60495;DHT22;46342;49.046;11.920;2022-07-06T19:16:32;25.20;32.40
60495;DHT22;46342;49.046;11.920;2022-07-06T19:18:58;25.10;32.60
60495;DHT22;46342;49.046;11.920;2022-07-06T19:21:29;25.00;32.70
60495;DHT22;46342;49.046;11.920;2022-07-06T19:23:54;25.00;33.10
60495;DHT22;46342;49.046;11.920;2022-07-06T19:26:20;24.80;33.50
60495;DHT22;46342;49.046;11.920;2022-07-06T19:28:47;24.70;32.90
60495;DHT22;46342;49.046;11.920;2022-07-06T19:31:13;24.60;33.00
60495;DHT22;46342;49.046;11.920;2022-07-06T19:33:38;24.50;33.20
60495;DHT22;46342;49.046;11.920;2022-07-06T19:36:07;24.40;33.20
60495;DHT22;46342;49.046;11.920;2022-07-06T19:38:32;24.30;33.60
60495;DHT22;46342;49.046;11.920;2022-07-06T19:40:58;24.20;33.50
60495;DHT22;46342;49.046;11.920;2022-07-06T19:43:24;24.10;33.50
60495;DHT22;46342;49.046;11.920;2022-07-06T19:45:51;24.00;33.60
60495;DHT22;46342;49.046;11.920;2022-07-06T19:48:16;23.90;33.70
60495;DHT22;46342;49.046;11.920;2022-07-06T19:50:42;23.80;33.70
60495;DHT22;46342;49.046;11.920;2022-07-06T19:53:08;23.70;33.80
60495;DHT22;46342;49.046;11.920;2022-07-06T19:55:35;23.60;34.00
60495;DHT22;46342;49.046;11.920;2022-07-06T19:58:01;23.50;34.00
60495;DHT22;46342;49.046;11.920;2022-07-06T20:00:27;23.40;34.10
60495;DHT22;46342;49.046;11.920;2022-07-06T20:02:54;23.30;34.10
60495;DHT22;46342;49.046;11.920;2022-07-06T20:05:22;23.20;34.20
60495;DHT22;46342;49.046;11.920;2022-07-06T20:07:48;23.10;34.00
60495;DHT22;46342;49.046;11.920;2022-07-06T20:10:14;23.00;34.20
60495;DHT22;46342;49.046;11.920;2022-07-06T20:12:39;23.00;34.30
60495;DHT22;46342;49.046;11.920;2022-07-06T20:15:05;22.90;34.40
60495;DHT22;46342;49.046;11.920;2022-07-06T20:17:31;22.80;34.50
60495;DHT22;46342;49.046;11.920;2022-07-06T20:19:58;22.70;34.50
60495;DHT22;46342;49.046;11.920;2022-07-06T20:22:24;22.70;34.70
60495;DHT22;46342;49.046;11.920;2022-07-06T20:24:49;22.60;34.70
60495;DHT22;46342;49.046;11.920;2022-07-06T20:27:16;22.50;34.80
60495;DHT22;46342;49.046;11.920;2022-07-06T20:29:42;22.50;34.90
60495;DHT22;46342;49.046;11.920;2022-07-06T20:32:08;22.40;35.00
60495;DHT22;46342;49.046;11.920;2022-07-06T20:34:35;22.30;35.10
60495;DHT22;46342;49.046;11.920;2022-07-06T20:37:01;22.20;35.20
60495;DHT22;46342;49.046;11.920;2022-07-06T20:39:26;22.20;35.20
60495;DHT22;46342;49.046;11.920;2022-07-06T20:42:04;22.10;35.30
60495;DHT22;46342;49.046;11.920;2022-07-06T20:44:30;22.10;36.10
60495;DHT22;46342;49.046;11.920;2022-07-06T20:46:56;22.00;35.50
60495;DHT22;46342;49.046;11.920;2022-07-06T20:49:21;21.90;35.50
60495;DHT22;46342;49.046;11.920;2022-07-06T20:51:47;21.90;35.60
60495;DHT22;46342;49.046;11.920;2022-07-06T20:54:14;21.80;35.70
60495;DHT22;46342;49.046;11.920;2022-07-06T20:56:40;21.80;35.90
60495;DHT22;46342;49.046;11.920;2022-07-06T20:59:06;21.70;35.80
60495;DHT22;46342;49.046;11.920;2022-07-06T21:01:31;21.60;35.80
60495;DHT22;46342;49.046;11.920;2022-07-06T21:03:59;21.60;35.90
60495;DHT22;46342;49.046;11.920;2022-07-06T21:06:25;21.50;36.50
60495;DHT22;46342;49.046;11.920;2022-07-06T21:08:51;21.50;35.90
60495;DHT22;46342;49.046;11.920;2022-07-06T21:11:17;21.50;36.10
60495;DHT22;46342;49.046;11.920;2022-07-06T21:13:42;21.40;36.00
60495;DHT22;46342;49.046;11.920;2022-07-06T21:16:08;21.40;36.60
60495;DHT22;46342;49.046;11.920;2022-07-06T21:18:33;21.30;36.00
60495;DHT22;46342;49.046;11.920;2022-07-06T21:20:59;21.30;36.70
60495;DHT22;46342;49.046;11.920;2022-07-06T21:23:25;21.20;36.10
60495;DHT22;46342;49.046;11.920;2022-07-06T21:25:50;21.20;36.10
60495;DHT22;46342;49.046;11.920;2022-07-06T21:28:16;21.20;36.10
60495;DHT22;46342;49.046;11.920;2022-07-06T21:30:42;21.20;36.10
60495;DHT22;46342;49.046;11.920;2022-07-06T21:33:08;21.10;36.10
60495;DHT22;46342;49.046;11.920;2022-07-06T21:35:34;21.10;36.20
60495;DHT22;46342;49.046;11.920;2022-07-06T21:38:01;21.10;36.30
60495;DHT22;46342;49.046;11.920;2022-07-06T21:40:27;21.10;36.40
60495;DHT22;46342;49.046;11.920;2022-07-06T21:42:52;21.00;36.20
60495;DHT22;46342;49.046;11.920;2022-07-06T21:45:18;21.00;36.30
60495;DHT22;46342;49.046;11.920;2022-07-06T21:47:44;21.00;36.30
60495;DHT22;46342;49.046;11.920;2022-07-06T21:50:09;20.90;36.30
60495;DHT22;46342;49.046;11.920;2022-07-06T21:52:35;20.90;36.30
60495;DHT22;46342;49.046;11.920;2022-07-06T21:55:01;20.90;36.30
60495;DHT22;46342;49.046;11.920;2022-07-06T21:57:26;20.90;36.40
60495;DHT22;46342;49.046;11.920;2022-07-06T21:59:52;20.80;36.30
60495;DHT22;46342;49.046;11.920;2022-07-06T22:02:18;20.80;36.30
60495;DHT22;46342;49.046;11.920;2022-07-06T22:04:43;20.80;36.40
60495;DHT22;46342;49.046;11.920;2022-07-06T22:07:09;20.80;36.40
60495;DHT22;46342;49.046;11.920;2022-07-06T22:09:35;20.70;36.40
60495;DHT22;46342;49.046;11.920;2022-07-06T22:12:00;20.70;36.60
60495;DHT22;46342;49.046;11.920;2022-07-06T22:14:26;20.70;36.60
60495;DHT22;46342;49.046;11.920;2022-07-06T22:16:52;20.60;36.60
60495;DHT22;46342;49.046;11.920;2022-07-06T22:19:17;20.60;36.60
60495;DHT22;46342;49.046;11.920;2022-07-06T22:21:43;20.60;36.70
60495;DHT22;46342;49.046;11.920;2022-07-06T22:24:09;20.60;36.70
60495;DHT22;46342;49.046;11.920;2022-07-06T22:26:34;20.50;36.60
60495;DHT22;46342;49.046;11.920;2022-07-06T22:29:02;20.50;36.80
60495;DHT22;46342;49.046;11.920;2022-07-06T22:31:29;20.40;36.70
60495;DHT22;46342;49.046;11.920;2022-07-06T22:33:55;20.40;36.70
60495;DHT22;46342;49.046;11.920;2022-07-06T22:36:21;20.40;36.70
60495;DHT22;46342;49.046;11.920;2022-07-06T22:38:50;20.30;36.80
60495;DHT22;46342;49.046;11.920;2022-07-06T22:41:16;20.20;36.70
60495;DHT22;46342;49.046;11.920;2022-07-06T22:43:41;20.20;36.70
60495;DHT22;46342;49.046;11.920;2022-07-06T22:46:09;20.20;36.70
60495;DHT22;46342;49.046;11.920;2022-07-06T22:48:37;20.10;36.70
60495;DHT22;46342;49.046;11.920;2022-07-06T22:51:03;20.10;36.80
60495;DHT22;46342;49.046;11.920;2022-07-06T22:53:29;20.00;36.90
60495;DHT22;46342;49.046;11.920;2022-07-06T22:55:55;20.00;37.00
60495;DHT22;46342;49.046;11.920;2022-07-06T22:58:21;19.90;37.00
60495;DHT22;46342;49.046;11.920;2022-07-06T23:00:46;19.80;37.00
60495;DHT22;46342;49.046;11.920;2022-07-06T23:03:12;19.80;37.10
60495;DHT22;46342;49.046;11.920;2022-07-06T23:05:38;19.80;37.20
60495;DHT22;46342;49.046;11.920;2022-07-06T23:08:04;19.70;37.10
60495;DHT22;46342;49.046;11.920;2022-07-06T23:10:30;19.70;37.20
60495;DHT22;46342;49.046;11.920;2022-07-06T23:12:57;19.60;37.20
60495;DHT22;46342;49.046;11.920;2022-07-06T23:15:23;19.60;38.00
60495;DHT22;46342;49.046;11.920;2022-07-06T23:17:53;19.50;37.40
60495;DHT22;46342;49.046;11.920;2022-07-06T23:20:19;19.50;37.40
60495;DHT22;46342;49.046;11.920;2022-07-06T23:22:44;19.40;37.40
60495;DHT22;46342;49.046;11.920;2022-07-06T23:25:10;19.30;37.50
60495;DHT22;46342;49.046;11.920;2022-07-06T23:27:36;19.30;37.60
60495;DHT22;46342;49.046;11.920;2022-07-06T23:30:02;19.20;37.60
60495;DHT22;46342;49.046;11.920;2022-07-06T23:32:28;19.10;37.60
60495;DHT22;46342;49.046;11.920;2022-07-06T23:34:54;19.00;37.60
60495;DHT22;46342;49.046;11.920;2022-07-06T23:37:20;19.00;37.70
60495;DHT22;46342;49.046;11.920;2022-07-06T23:39:46;18.90;37.80
60495;DHT22;46342;49.046;11.920;2022-07-06T23:42:12;18.90;37.90
60495;DHT22;46342;49.046;11.920;2022-07-06T23:44:37;18.80;38.50
60495;DHT22;46342;49.046;11.920;2022-07-06T23:47:36;18.70;37.90
60495;DHT22;46342;49.046;11.920;2022-07-06T23:50:03;18.70;38.70
60495;DHT22;46342;49.046;11.920;2022-07-06T23:52:29;18.60;38.00
60495;DHT22;46342;49.046;11.920;2022-07-06T23:54:54;18.60;38.10
60495;DHT22;46342;49.046;11.920;2022-07-06T23:57:20;18.60;38.20
60495;DHT22;46342;49.046;11.920;2022-07-06T23:59:45;18.50;38.20
